sensor_id;sensor_type;location;lat;lon;timestamp;pressure;altitude;pressure_sealevel;temperature;humidity
11710;BME280;5911;51.036;6.972;2022-11-21T00:01:14;99575.41;;;8.92;100.00
11710;BME280;5911;51.036;6.972;2022-11-21T00:03:43;99584.69;;;8.96;100.00
11710;BME280;5911;51.036;6.972;2022-11-21T00:06:11;99577.88;;;9.03;100.00
11710;BME280;5911;51.036;6.972;2022-11-21T00:08:39;99585.38;;;8.98;100.00
11710;BME280;5911;51.036;6.972;2022-11-21T00:11:06;99582.06;;;8.96;100.00
11710;BME280;5911;51.036;6.972;2022-11-21T00:13:34;99595.06;;;8.88;100.00
11710;BME280;5911;51.036;6.972;2022-11-21T00:16:03;99584.94;;;9.03;100.00
11710;BME280;5911;51.036;6.972;2022-11-21T00:18:32;99583.44;;;9.00;100.00
11710;BME280;5911;51.036;6.972;2022-11-21T00:21:04;99577.38;;;9.00;100.00
11710;BME280;5911;51.036;6.972;2022-11-21T00:23:32;99584.97;;;8.93;100.00
11710;BME280;5911;51.036;6.972;2022-11-21T00:26:03;99570.44;;;8.89;100.00
11710;BME280;5911;51.036;6.972;2022-11-21T00:28:31;99588.72;;;9.00;100.00
11710;BME280;5911;51.036;6.972;2022-11-21T00:30:58;99607.50;;;9.05;100.00
11710;BME280;5911;51.036;6.972;2022-11-21T00:33:26;99612.22;;;9.11;100.00
11710;BME280;5911;51.036;6.972;2022-11-21T00:35:54;99605.72;;;9.06;100.00
11710;BME280;5911;51.036;6.972;2022-11-21T00:38:23;99609.75;;;9.00;100.00
11710;BME280;5911;51.036;6.972;2022-11-21T00:40:51;99599.22;;;9.00;100.00
11710;BME280;5911;51.036;6.972;2022-11-21T00:43:19;99600.59;;;9.04;100.00
11710;BME280;5911;51.036;6.972;2022-11-21T00:45:46;99613.88;;;9.03;100.00
11710;BME280;5911;51.036;6.972;2022-11-21T00:48:14;99615.00;;;9.00;100.00
11710;BME280;5911;51.036;6.972;2022-11-21T00:50:42;99586.78;;;8.93;100.00
11710;BME280;5911;51.036;6.972;2022-11-21T00:53:09;99618.31;;;9.02;100.00
11710;BME280;5911;51.036;6.972;2022-11-21T00:55:39;99622.47;;;8.95;100.00
11710;BME280;5911;51.036;6.972;2022-11-21T00:58:06;99617.78;;;8.99;100.00
11710;BME280;5911;51.036;6.972;2022-11-21T01:00:34;99611.41;;;8.92;100.00
11710;BME280;5911;51.036;6.972;2022-11-21T01:03:02;99609.34;;;8.95;100.00
11710;BME280;5911;51.036;6.972;2022-11-21T01:05:30;99587.59;;;8.74;100.00
11710;BME280;5911;51.036;6.972;2022-11-21T01:07:58;99618.34;;;8.83;100.00
11710;BME280;5911;51.036;6.972;2022-11-21T01:10:26;99612.78;;;8.86;100.00
11710;BME280;5911;51.036;6.972;2022-11-21T01:12:55;99612.94;;;8.85;100.00
11710;BME280;5911;51.036;6.972;2022-11-21T01:15:23;99608.91;;;8.90;100.00
11710;BME280;5911;51.036;6.972;2022-11-21T01:17:50;99614.44;;;8.87;100.00
11710;BME280;5911;51.036;6.972;2022-11-21T01:20:18;99620.81;;;8.94;100.00
11710;BME280;5911;51.036;6.972;2022-11-21T01:22:46;99626.75;;;8.87;100.00
11710;BME280;5911;51.036;6.972;2022-11-21T01:25:14;99629.56;;;8.85;100.00
11710;BME280;5911;51.036;6.972;2022-11-21T01:27:42;99632.56;;;8.90;100.00
11710;BME280;5911;51.036;6.972;2022-11-21T01:32:40;99643.81;;;8.82;100.00
11710;BME280;5911;51.036;6.972;2022-11-21T01:35:08;99633.03;;;8.86;100.00
11710;BME280;5911;51.036;6.972;2022-11-21T01:37:35;99630.94;;;8.79;100.00
11710;BME280;5911;51.036;6.972;2022-11-21T01:40:04;99634.13;;;8.83;100.00
11710;BME280;5911;51.036;6.972;2022-11-21T01:42:47;99619.00;;;8.75;100.00
11710;BME280;5911;51.036;6.972;2022-11-21T01:48:36;99628.84;;;8.83;100.00
11710;BME280;5911;51.036;6.972;2022-11-21T01:51:08;99627.75;;;8.86;100.00
11710;BME280;5911;51.036;6.972;2022-11-21T01:53:37;99632.72;;;8.89;100.00
11710;BME280;5911;51.036;6.972;2022-11-21T01:56:07;99631.34;;;8.94;100.00
11710;BME280;5911;51.036;6.972;2022-11-21T01:58:36;99626.34;;;8.91;100.00
11710;BME280;5911;51.036;6.972;2022-11-21T02:01:06;99629.13;;;8.80;100.00
11710;BME280;5911;51.036;6.972;2022-11-21T02:03:39;99638.81;;;8.79;100.00
11710;BME280;5911;51.036;6.972;2022-11-21T02:06:08;99630.94;;;8.79;100.00
11710;BME280;5911;51.036;6.972;2022-11-21T02:08:39;99637.72;;;8.82;100.00
11710;BME280;5911;51.036;6.972;2022-11-21T02:11:16;99638.25;;;8.76;100.00
11710;BME280;5911;51.036;6.972;2022-11-21T02:13:45;99641.31;;;8.81;100.00
11710;BME280;5911;51.036;6.972;2022-11-21T02:16:13;99640.47;;;8.80;100.00
11710;BME280;5911;51.036;6.972;2022-11-21T02:18:42;99643.25;;;8.79;100.00
11710;BME280;5911;51.036;6.972;2022-11-21T02:21:16;99640.34;;;8.82;100.00
11710;BME280;5911;51.036;6.972;2022-11-21T02:23:53;99640.75;;;8.87;100.00
11710;BME280;5911;51.036;6.972;2022-11-21T02:26:27;99652.53;;;8.83;100.00
11710;BME280;5911;51.036;6.972;2022-11-21T02:28:56;99644.50;;;8.85;100.00
11710;BME280;5911;51.036;6.972;2022-11-21T02:31:24;99653.06;;;8.87;100.00
11710;BME280;5911;51.036;6.972;2022-11-21T02:33:52;99646.56;;;8.81;100.00
11710;BME280;5911;51.036;6.972;2022-11-21T02:36:32;99644.34;;;8.86;100.00
11710;BME280;5911;51.036;6.972;2022-11-21T02:39:02;99646.56;;;8.91;100.00
11710;BME280;5911;51.036;6.972;2022-11-21T02:41:34;99636.72;;;8.93;100.00
11710;BME280;5911;51.036;6.972;2022-11-21T02:44:07;99647.69;;;8.98;100.00
11710;BME280;5911;51.036;6.972;2022-11-21T02:46:45;99645.19;;;8.96;100.00
11710;BME280;5911;51.036;6.972;2022-11-21T02:49:15;99645.06;;;8.98;100.00
11710;BME280;5911;51.036;6.972;2022-11-21T02:51:46;99648.09;;;8.93;100.00
11710;BME280;5911;51.036;6.972;2022-11-21T02:54:14;99647.13;;;8.94;100.00
11710;BME280;5911;51.036;6.972;2022-11-21T02:56:43;99643.78;;;8.92;100.00
11710;BME280;5911;51.036;6.972;2022-11-21T02:59:11;99647.13;;;8.94;100.00
11710;BME280;5911;51.036;6.972;2022-11-21T03:01:39;99638.13;;;8.97;100.00
11710;BME280;5911;51.036;6.972;2022-11-21T03:04:07;99646.16;;;8.95;100.00
11710;BME280;5911;51.036;6.972;2022-11-21T03:06:34;99638.81;;;8.89;100.00
11710;BME280;5911;51.036;6.972;2022-11-21T03:09:02;99643.38;;;8.87;100.00
11710;BME280;5911;51.036;6.972;2022-11-21T03:11:30;99648.34;;;8.90;100.00
11710;BME280;5911;51.036;6.972;2022-11-21T03:13:59;99641.56;;;8.88;100.00
11710;BME280;5911;51.036;6.972;2022-11-21T03:16:27;99616.97;;;8.69;100.00
11710;BME280;5911;51.036;6.972;2022-11-21T03:18:55;99649.59;;;8.86;100.00
11710;BME280;5911;51.036;6.972;2022-11-21T03:21:23;99642.25;;;8.90;100.00
11710;BME280;5911;51.036;6.972;2022-11-21T03:23:51;99622.63;;;8.84;100.00
11710;BME280;5911;51.036;6.972;2022-11-21T03:26:18;99640.19;;;8.93;100.00
11710;BME280;5911;51.036;6.972;2022-11-21T03:28:46;99643.78;;;8.92;100.00
11710;BME280;5911;51.036;6.972;2022-11-21T03:31:16;99599.78;;;8.65;100.00
11710;BME280;5911;51.036;6.972;2022-11-21T03:33:44;99652.94;;;8.98;100.00
11710;BME280;5911;51.036;6.972;2022-11-21T03:36:12;99649.06;;;8.92;100.00
11710;BME280;5911;51.036;6.972;2022-11-21T03:38:40;99650.28;;;8.88;100.00
11710;BME280;5911;51.036;6.972;2022-11-21T03:41:08;99631.47;;;8.73;100.00
11710;BME280;5911;51.036;6.972;2022-11-21T03:43:55;99657.09;;;8.81;100.00
11710;BME280;5911;51.036;6.972;2022-11-21T03:46:24;99658.88;;;8.80;100.00
11710;BME280;5911;51.036;6.972;2022-11-21T03:48:52;99620.00;;;8.55;100.00
11710;BME280;5911;51.036;6.972;2022-11-21T03:51:20;99650.44;;;8.77;100.00
11710;BME280;5911;51.036;6.972;2022-11-21T03:53:49;99637.03;;;8.70;100.00
11710;BME280;5911;51.036;6.972;2022-11-21T03:56:16;99650.28;;;8.78;100.00
11710;BME280;5911;51.036;6.972;2022-11-21T03:58:44;99646.72;;;8.79;100.00
11710;BME280;5911;51.036;6.972;2022-11-21T04:01:13;99644.91;;;8.80;100.00
11710;BME280;5911;51.036;6.972;2022-11-21T04:03:43;99634.53;;;8.69;100.00
11710;BME280;5911;51.036;6.972;2022-11-21T04:06:13;99653.50;;;8.82;100.00
11710;BME280;5911;51.036;6.972;2022-11-21T04:08:41;99651.81;;;8.81;100.00
11710;BME280;5911;51.036;6.972;2022-11-21T04:11:09;99650.59;;;8.85;100.00
11710;BME280;5911;51.036;6.972;2022-11-21T04:13:37;99657.34;;;8.88;100.00
11710;BME280;5911;51.036;6.972;2022-11-21T04:16:05;99653.63;;;8.90;100.00
11710;BME280;5911;51.036;6.972;2022-11-21T04:18:33;99656.53;;;8.87;100.00
11710;BME280;5911;51.036;6.972;2022-11-21T04:21:04;99657.22;;;8.89;100.00
11710;BME280;5911;51.036;6.972;2022-11-21T04:23:32;99516.56;;;7.97;100.00
11710;BME280;5911;51.036;6.972;2022-11-21T04:26:00;99653.63;;;8.90;100.00
11710;BME280;5911;51.036;6.972;2022-11-21T04:28:28;99644.91;;;8.80;100.00
11710;BME280;5911;51.036;6.972;2022-11-21T04:31:01;99651.56;;;8.84;100.00
11710;BME280;5911;51.036;6.972;2022-11-21T04:33:36;99668.00;;;8.86;100.00
11710;BME280;5911;51.036;6.972;2022-11-21T04:36:06;99666.50;;;8.84;100.00
11710;BME280;5911;51.036;6.972;2022-11-21T04:38:34;99664.84;;;8.82;100.00
11710;BME280;5911;51.036;6.972;2022-11-21T04:41:02;99670.22;;;8.81;100.00
11710;BME280;5911;51.036;6.972;2022-11-21T04:43:30;99662.91;;;8.85;100.00
11710;BME280;5911;51.036;6.972;2022-11-21T04:45:58;99651.56;;;8.84;100.00
11710;BME280;5911;51.036;6.972;2022-11-21T04:48:26;99626.34;;;8.72;100.00
11710;BME280;5911;51.036;6.972;2022-11-21T04:50:54;99648.94;;;8.84;100.00
11710;BME280;5911;51.036;6.972;2022-11-21T04:53:23;99644.34;;;8.86;100.00
11710;BME280;5911;51.036;6.972;2022-11-21T04:55:50;99642.13;;;8.81;100.00
11710;BME280;5911;51.036;6.972;2022-11-21T04:58:18;99634.38;;;8.80;100.00
11710;BME280;5911;51.036;6.972;2022-11-21T05:00:46;99626.66;;;8.69;100.00
11710;BME280;5911;51.036;6.972;2022-11-21T05:03:14;99654.72;;;8.78;100.00
11710;BME280;5911;51.036;6.972;2022-11-21T05:05:42;99650.16;;;8.80;100.00
11710;BME280;5911;51.036;6.972;2022-11-21T05:08:10;99656.38;;;8.79;100.00
11710;BME280;5911;51.036;6.972;2022-11-21T05:10:39;99649.19;;;8.81;100.00
11710;BME280;5911;51.036;6.972;2022-11-21T05:13:21;99650.16;;;8.80;100.00
11710;BME280;5911;51.036;6.972;2022-11-21T05:15:48;99650.16;;;8.80;100.00
11710;BME280;5911;51.036;6.972;2022-11-21T05:18:22;99651.81;;;8.81;100.00
11710;BME280;5911;51.036;6.972;2022-11-21T05:20:50;99644.63;;;8.83;100.00
11710;BME280;5911;51.036;6.972;2022-11-21T05:23:18;99626.50;;;8.80;100.00
11710;BME280;5911;51.036;6.972;2022-11-21T05:25:47;99634.66;;;8.87;100.00
11710;BME280;5911;51.036;6.972;2022-11-21T05:28:15;99639.06;;;8.86;100.00
11710;BME280;5911;51.036;6.972;2022-11-21T05:30:43;99635.34;;;8.89;100.00
11710;BME280;5911;51.036;6.972;2022-11-21T05:33:11;99638.09;;;8.87;100.00
11710;BME280;5911;51.036;6.972;2022-11-21T05:35:41;99625.94;;;8.86;100.00
11710;BME280;5911;51.036;6.972;2022-11-21T05:38:09;99627.59;;;8.87;100.00
11710;BME280;5911;51.036;6.972;2022-11-21T05:40:37;99613.09;;;8.83;100.00
11710;BME280;5911;51.036;6.972;2022-11-21T05:43:09;99638.25;;;8.95;100.00
11710;BME280;5911;51.036;6.972;2022-11-21T05:45:54;99648.78;;;8.95;100.00
11710;BME280;5911;51.036;6.972;2022-11-21T05:48:22;99652.38;;;8.94;100.00
11710;BME280;5911;51.036;6.972;2022-11-21T05:50:50;99651.00;;;8.90;100.00
11710;BME280;5911;51.036;6.972;2022-11-21T05:53:18;99621.66;;;8.75;100.00
11710;BME280;5911;51.036;6.972;2022-11-21T05:55:47;99628.44;;;8.78;100.00
11710;BME280;5911;51.036;6.972;2022-11-21T05:58:16;99643.22;;;8.89;100.00
11710;BME280;5911;51.036;6.972;2022-11-21T06:00:44;99633.16;;;8.84;100.00
11710;BME280;5911;51.036;6.972;2022-11-21T06:03:12;99637.16;;;8.88;100.00
11710;BME280;5911;51.036;6.972;2022-11-21T06:05:58;99631.75;;;8.80;100.00
11710;BME280;5911;51.036;6.972;2022-11-21T06:08:27;99628.28;;;8.89;100.00
11710;BME280;5911;51.036;6.972;2022-11-21T06:10:55;99635.22;;;8.90;100.00
11710;BME280;5911;51.036;6.972;2022-11-21T06:13:24;99638.81;;;8.89;100.00
11710;BME280;5911;51.036;6.972;2022-11-21T06:15:53;99636.19;;;8.89;100.00
11710;BME280;5911;51.036;6.972;2022-11-21T06:18:22;99637.97;;;8.89;100.00
11710;BME280;5911;51.036;6.972;2022-11-21T06:20:50;99637.44;;;8.85;100.00
11710;BME280;5911;51.036;6.972;2022-11-21T06:23:18;99630.53;;;8.84;100.00
11710;BME280;5911;51.036;6.972;2022-11-21T06:25:45;99630.53;;;8.84;100.00
11710;BME280;5911;51.036;6.972;2022-11-21T06:28:13;99619.84;;;8.76;100.00
11710;BME280;5911;51.036;6.972;2022-11-21T06:30:42;99635.78;;;8.84;100.00
11710;BME280;5911;51.036;6.972;2022-11-21T06:33:11;99632.56;;;8.90;100.00
11710;BME280;5911;51.036;6.972;2022-11-21T06:35:39;99625.78;;;8.88;100.00
11710;BME280;5911;51.036;6.972;2022-11-21T06:38:07;99622.63;;;8.84;100.00
11710;BME280;5911;51.036;6.972;2022-11-21T06:40:34;99620.00;;;8.84;100.00
11710;BME280;5911;51.036;6.972;2022-11-21T06:43:02;99619.69;;;8.87;100.00
11710;BME280;5911;51.036;6.972;2022-11-21T06:45:30;99617.75;;;8.89;100.00
11710;BME280;5911;51.036;6.972;2022-11-21T06:48:02;99618.03;;;8.86;100.00
11710;BME280;5911;51.036;6.972;2022-11-21T06:50:30;99623.47;;;8.85;100.00
11710;BME280;5911;51.036;6.972;2022-11-21T06:52:58;99624.81;;;8.89;100.00
11710;BME280;5911;51.036;6.972;2022-11-21T06:55:26;99606.97;;;8.63;100.00
11710;BME280;5911;51.036;6.972;2022-11-21T06:57:56;99631.88;;;8.88;100.00
11710;BME280;5911;51.036;6.972;2022-11-21T07:00:25;99627.47;;;8.79;100.00
11710;BME280;5911;51.036;6.972;2022-11-21T07:02:53;99636.88;;;8.81;100.00
11710;BME280;5911;51.036;6.972;2022-11-21T07:05:29;99643.81;;;8.82;100.00
11710;BME280;5911;51.036;6.972;2022-11-21T07:07:58;99633.16;;;8.84;100.00
11710;BME280;5911;51.036;6.972;2022-11-21T07:10:26;99630.22;;;8.87;100.00
11710;BME280;5911;51.036;6.972;2022-11-21T07:12:55;99629.81;;;8.82;100.00
11710;BME280;5911;51.036;6.972;2022-11-21T07:15:41;99631.63;;;8.81;100.00
11710;BME280;5911;51.036;6.972;2022-11-21T07:18:09;99631.34;;;8.75;100.00
11710;BME280;5911;51.036;6.972;2022-11-21T07:20:39;99610.00;;;8.59;100.00
11710;BME280;5911;51.036;6.972;2022-11-21T07:23:07;99630.22;;;8.77;100.00
11710;BME280;5911;51.036;6.972;2022-11-21T07:25:35;99630.09;;;8.79;100.00
11710;BME280;5911;51.036;6.972;2022-11-21T07:28:05;99634.66;;;8.77;100.00
11710;BME280;5911;51.036;6.972;2022-11-21T07:30:34;99626.94;;;8.85;100.00
11710;BME280;5911;51.036;6.972;2022-11-21T07:33:04;99622.34;;;8.87;100.00
11710;BME280;5911;51.036;6.972;2022-11-21T07:35:32;99625.53;;;8.91;100.00
11710;BME280;5911;51.036;6.972;2022-11-21T07:38:02;99624.97;;;8.87;100.00
11710;BME280;5911;51.036;6.972;2022-11-21T07:40:30;99632.72;;;8.89;100.00
11710;BME280;5911;51.036;6.972;2022-11-21T07:43:00;99611.97;;;8.76;100.00
11710;BME280;5911;51.036;6.972;2022-11-21T07:45:36;99629.69;;;8.93;100.00
11710;BME280;5911;51.036;6.972;2022-11-21T07:48:05;99629.69;;;8.93;100.00
11710;BME280;5911;51.036;6.972;2022-11-21T07:50:34;99618.06;;;8.96;100.00
11710;BME280;5911;51.036;6.972;2022-11-21T07:53:04;99617.50;;;8.92;100.00
11710;BME280;5911;51.036;6.972;2022-11-21T07:55:33;99597.84;;;8.77;100.00
11710;BME280;5911;51.036;6.972;2022-11-21T07:58:07;99622.88;;;8.91;100.00
11710;BME280;5911;51.036;6.972;2022-11-21T08:00:36;99602.84;;;8.80;100.00
11710;BME280;5911;51.036;6.972;2022-11-21T08:03:05;99609.03;;;8.89;100.00
11710;BME280;5911;51.036;6.972;2022-11-21T08:05:34;99629.41;;;8.96;100.00
11710;BME280;5911;51.036;6.972;2022-11-21T08:08:04;99616.25;;;8.96;100.00
11710;BME280;5911;51.036;6.972;2022-11-21T08:10:32;99617.34;;;8.94;100.00
11710;BME280;5911;51.036;6.972;2022-11-21T08:13:03;99604.50;;;9.00;100.00
11710;BME280;5911;51.036;6.972;2022-11-21T08:15:30;99607.53;;;8.96;100.00
11710;BME280;5911;51.036;6.972;2022-11-21T08:18:06;99596.03;;;9.06;100.00
11710;BME280;5911;51.036;6.972;2022-11-21T08:20:34;99593.38;;;9.06;100.00
11710;BME280;5911;51.036;6.972;2022-11-21T08:23:03;99598.09;;;9.03;100.00
11710;BME280;5911;51.036;6.972;2022-11-21T08:25:31;99604.50;;;9.00;100.00
11710;BME280;5911;51.036;6.972;2022-11-21T08:27:59;99600.91;;;8.82;100.00
11710;BME280;5911;51.036;6.972;2022-11-21T08:30:28;99612.66;;;8.88;100.00
11710;BME280;5911;51.036;6.972;2022-11-21T08:32:56;99598.97;;;8.84;100.00
11710;BME280;5911;51.036;6.972;2022-11-21T08:35:24;99604.63;;;8.79;100.00
11710;BME280;5911;51.036;6.972;2022-11-21T08:37:55;99610.84;;;8.78;100.00
11710;BME280;5911;51.036;6.972;2022-11-21T08:40:26;99612.13;;;8.84;100.00
11710;BME280;5911;51.036;6.972;2022-11-21T08:42:57;99602.53;;;8.73;100.00
11710;BME280;5911;51.036;6.972;2022-11-21T08:45:25;99608.09;;;8.80;100.00
11710;BME280;5911;51.036;6.972;2022-11-21T08:47:53;99599.50;;;8.78;100.00
11710;BME280;5911;51.036;6.972;2022-11-21T08:50:22;99613.91;;;8.84;100.00
11710;BME280;5911;51.036;6.972;2022-11-21T08:52:50;99608.91;;;8.90;100.00
11710;BME280;5911;51.036;6.972;2022-11-21T08:55:18;99604.34;;;8.92;100.00
11710;BME280;5911;51.036;6.972;2022-11-21T08:57:49;99599.50;;;8.88;100.00
11710;BME280;5911;51.036;6.972;2022-11-21T09:00:17;99605.59;;;8.98;100.00
11710;BME280;5911;51.036;6.972;2022-11-21T09:02:45;99540.16;;;8.56;100.00
11710;BME280;5911;51.036;6.972;2022-11-21T09:05:13;99592.59;;;8.96;100.00
11710;BME280;5911;51.036;6.972;2022-11-21T09:07:41;99595.91;;;8.98;100.00
11710;BME280;5911;51.036;6.972;2022-11-21T09:10:09;99592.59;;;8.96;100.00
11710;BME280;5911;51.036;6.972;2022-11-21T09:12:37;99582.06;;;8.96;100.00
11710;BME280;5911;51.036;6.972;2022-11-21T09:15:08;99558.56;;;8.85;100.00
11710;BME280;5911;51.036;6.972;2022-11-21T09:17:54;99576.78;;;9.06;100.00
11710;BME280;5911;51.036;6.972;2022-11-21T09:20:31;99565.84;;;9.10;100.00
11710;BME280;5911;51.036;6.972;2022-11-21T09:23:03;99556.56;;;9.16;100.00
11710;BME280;5911;51.036;6.972;2022-11-21T09:25:31;99554.31;;;9.21;100.00
11710;BME280;5911;51.036;6.972;2022-11-21T09:28:01;99560.41;;;9.31;100.00
11710;BME280;5911;51.036;6.972;2022-11-21T09:30:30;99563.28;;;9.38;100.00
11710;BME280;5911;51.036;6.972;2022-11-21T09:32:59;99562.31;;;9.39;100.00
11710;BME280;5911;51.036;6.972;2022-11-21T09:35:28;99564.66;;;9.42;100.00
11710;BME280;5911;51.036;6.972;2022-11-21T09:37:56;99559.25;;;9.43;100.00
11710;BME280;5911;51.036;6.972;2022-11-21T09:40:24;99568.94;;;9.43;100.00
11710;BME280;5911;51.036;6.972;2022-11-21T09:43:02;99563.28;;;9.38;100.00
11710;BME280;5911;51.036;6.972;2022-11-21T09:45:38;99558.69;;;9.40;100.00
11710;BME280;5911;51.036;6.972;2022-11-21T09:48:10;99567.28;;;9.42;100.00
11710;BME280;5911;51.036;6.972;2022-11-21T09:50:41;99551.78;;;9.39;100.00
11710;BME280;5911;51.036;6.972;2022-11-21T09:53:19;99551.59;;;9.50;100.00
11710;BME280;5911;51.036;6.972;2022-11-21T09:55:50;99537.91;;;9.37;100.00
11710;BME280;5911;51.036;6.972;2022-11-21T09:58:26;99546.78;;;9.45;100.00
11710;BME280;5911;51.036;6.972;2022-11-21T10:00:59;99544.09;;;9.55;100.00
11710;BME280;5911;51.036;6.972;2022-11-21T10:03:29;99539.25;;;9.50;100.00
11710;BME280;5911;51.036;6.972;2022-11-21T10:06:00;99546.72;;;9.55;100.00
11710;BME280;5911;51.036;6.972;2022-11-21T10:08:34;99530.44;;;9.69;100.00
11710;BME280;5911;51.036;6.972;2022-11-21T10:11:15;99524.59;;;9.75;100.00
11710;BME280;5911;51.036;6.972;2022-11-21T10:13:56;99523.03;;;9.82;100.00
11710;BME280;5911;51.036;6.972;2022-11-21T10:16:36;99521.84;;;9.95;100.00
11710;BME280;5911;51.036;6.972;2022-11-21T10:22:05;99527.09;;;9.95;100.00
11710;BME280;5911;51.036;6.972;2022-11-21T10:24:45;99529.09;;;9.93;100.00
11710;BME280;5911;51.036;6.972;2022-11-21T10:27:23;99521.31;;;9.91;100.00
11710;BME280;5911;51.036;6.972;2022-11-21T10:29:57;99504.56;;;9.92;100.00
11710;BME280;5911;51.036;6.972;2022-11-21T10:32:30;99509.63;;;9.94;100.00
11710;BME280;5911;51.036;6.972;2022-11-21T10:35:10;99508.31;;;9.90;100.00
11710;BME280;5911;51.036;6.972;2022-11-21T10:37:44;99503.03;;;9.90;100.00
11710;BME280;5911;51.036;6.972;2022-11-21T10:40:31;99489.09;;;9.97;100.00
11710;BME280;5911;51.036;6.972;2022-11-21T10:43:01;99495.59;;;10.03;100.00
11710;BME280;5911;51.036;6.972;2022-11-21T10:45:52;99493.34;;;10.08;100.00
11710;BME280;5911;51.036;6.972;2022-11-21T10:48:21;99483.47;;;10.10;100.00
11710;BME280;5911;51.036;6.972;2022-11-21T10:51:06;99486.03;;;10.02;100.00
11710;BME280;5911;51.036;6.972;2022-11-21T10:53:39;99469.78;;;9.88;100.00
11710;BME280;5911;51.036;6.972;2022-11-21T10:56:33;99463.88;;;9.95;100.00
11710;BME280;5911;51.036;6.972;2022-11-21T10:59:11;99464.28;;;10.00;100.00
11710;BME280;5911;51.036;6.972;2022-11-21T11:01:39;99471.59;;;10.06;100.00
11710;BME280;5911;51.036;6.972;2022-11-21T11:04:21;99464.94;;;10.02;100.00
11710;BME280;5911;51.036;6.972;2022-11-21T11:06:56;99444.63;;;9.94;100.00
11710;BME280;5911;51.036;6.972;2022-11-21T11:09:28;99456.63;;;10.06;100.00
11710;BME280;5911;51.036;6.972;2022-11-21T11:12:27;99444.31;;;10.15;100.00
11710;BME280;5911;51.036;6.972;2022-11-21T11:15:19;99430.72;;;10.19;100.00
11710;BME280;5911;51.036;6.972;2022-11-21T11:17:53;99429.44;;;10.23;100.00
11710;BME280;5911;51.036;6.972;2022-11-21T11:20:32;99414.28;;;10.26;100.00
11710;BME280;5911;51.036;6.972;2022-11-21T11:23:14;99419.19;;;10.38;100.00
11710;BME280;5911;51.036;6.972;2022-11-21T11:25:45;99417.44;;;10.47;100.00
11710;BME280;5911;51.036;6.972;2022-11-21T11:28:13;99412.72;;;10.58;100.00
11710;BME280;5911;51.036;6.972;2022-11-21T11:30:42;99402.25;;;10.67;100.00
11710;BME280;5911;51.036;6.972;2022-11-21T11:33:30;99391.69;;;10.67;100.00
11710;BME280;5911;51.036;6.972;2022-11-21T11:36:09;99384.13;;;10.72;100.00
11710;BME280;5911;51.036;6.972;2022-11-21T11:38:40;99381.53;;;10.80;100.00
11710;BME280;5911;51.036;6.972;2022-11-21T11:41:15;99386.97;;;10.78;100.00
11710;BME280;5911;51.036;6.972;2022-11-21T11:43:54;99372.59;;;10.73;100.00
11710;BME280;5911;51.036;6.972;2022-11-21T11:46:57;99367.38;;;10.81;100.00
11710;BME280;5911;51.036;6.972;2022-11-21T11:49:47;99375.81;;;10.84;100.00
11710;BME280;5911;51.036;6.972;2022-11-21T11:52:40;99371.66;;;10.82;100.00
11710;BME280;5911;51.036;6.972;2022-11-21T11:55:16;99364.69;;;10.73;100.00
11710;BME280;5911;51.036;6.972;2022-11-21T11:57:48;99357.25;;;10.68;100.00
11710;BME280;5911;51.036;6.972;2022-11-21T12:00:27;99344.53;;;10.64;100.00
11710;BME280;5911;51.036;6.972;2022-11-21T12:03:00;99349.81;;;10.64;100.00
11710;BME280;5911;51.036;6.972;2022-11-21T12:05:31;99349.50;;;10.67;100.00
11710;BME280;5911;51.036;6.972;2022-11-21T12:08:09;99345.22;;;10.66;100.00
11710;BME280;5911;51.036;6.972;2022-11-21T12:11:10;99340.25;;;10.63;100.00
11710;BME280;5911;51.036;6.972;2022-11-21T12:14:02;99337.59;;;10.63;100.00
11710;BME280;5911;51.036;6.972;2022-11-21T12:16:34;99342.88;;;10.63;100.00
11710;BME280;5911;51.036;6.972;2022-11-21T12:19:07;99330.53;;;10.63;100.00
11710;BME280;5911;51.036;6.972;2022-11-21T12:21:39;99329.84;;;10.61;100.00
11710;BME280;5911;51.036;6.972;2022-11-21T12:24:09;99320.44;;;10.58;100.00
11710;BME280;5911;51.036;6.972;2022-11-21T12:26:48;99314.56;;;10.65;100.00
11710;BME280;5911;51.036;6.972;2022-11-21T12:29:31;99314.03;;;10.61;100.00
11710;BME280;5911;51.036;6.972;2022-11-21T12:32:19;99309.59;;;10.62;100.00
11710;BME280;5911;51.036;6.972;2022-11-21T12:35:01;99310.25;;;10.64;100.00
11710;BME280;5911;51.036;6.972;2022-11-21T12:37:38;99301.81;;;10.52;100.00
11710;BME280;5911;51.036;6.972;2022-11-21T12:40:27;99300.81;;;10.53;100.00
11710;BME280;5911;51.036;6.972;2022-11-21T12:43:08;99290.28;;;10.53;100.00
11710;BME280;5911;51.036;6.972;2022-11-21T12:45:38;99285.50;;;10.56;100.00
11710;BME280;5911;51.036;6.972;2022-11-21T12:48:21;99287.13;;;10.49;100.00
11710;BME280;5911;51.036;6.972;2022-11-21T12:51:29;99283.66;;;10.49;100.00
11710;BME280;5911;51.036;6.972;2022-11-21T12:57:14;99278.56;;;10.55;100.00
11710;BME280;5911;51.036;6.972;2022-11-21T12:59:51;99276.13;;;10.54;100.00
11710;BME280;5911;51.036;6.972;2022-11-21T13:02:33;99271.47;;;10.56;100.00
11710;BME280;5911;51.036;6.972;2022-11-21T13:05:09;99270.84;;;10.54;100.00
11710;BME280;5911;51.036;6.972;2022-11-21T13:07:42;99260.78;;;10.57;100.00
11710;BME280;5911;51.036;6.972;2022-11-21T13:10:14;99264.41;;;10.56;100.00
11710;BME280;5911;51.036;6.972;2022-11-21T13:12:48;99264.09;;;10.60;100.00
11710;BME280;5911;51.036;6.972;2022-11-21T13:15:23;99256.31;;;10.58;100.00
11710;BME280;5911;51.036;6.972;2022-11-21T13:17:55;99244.66;;;10.61;100.00
11710;BME280;5911;51.036;6.972;2022-11-21T13:20:27;99247.59;;;10.57;100.00
11710;BME280;5911;51.036;6.972;2022-11-21T13:22:58;99244.47;;;10.54;100.00
11710;BME280;5911;51.036;6.972;2022-11-21T13:25:38;99243.31;;;10.56;100.00
11710;BME280;5911;51.036;6.972;2022-11-21T13:28:29;99236.72;;;10.61;100.00
11710;BME280;5911;51.036;6.972;2022-11-21T13:30:59;99222.81;;;10.42;100.00
11710;BME280;5911;51.036;6.972;2022-11-21T13:33:51;99233.09;;;10.53;100.00
11710;BME280;5911;51.036;6.972;2022-11-21T13:36:39;99225.81;;;10.55;100.00
11710;BME280;5911;51.036;6.972;2022-11-21T13:39:26;99215.09;;;10.49;100.00
11710;BME280;5911;51.036;6.972;2022-11-21T13:42:14;99212.63;;;10.47;100.00
11710;BME280;5911;51.036;6.972;2022-11-21T13:45:37;99198.97;;;10.52;100.00
11710;BME280;5911;51.036;6.972;2022-11-21T13:48:34;99190.09;;;10.53;100.00